Time;durP1;ratioP1;P1;durP2;ratioP2;P2;SDS_P1;SDS_P2;PMS_P1;PMS_P2;Temp;Humidity;BMP_temperature;BMP_pressure;BME280_temperature;BME280_humidity;BME280_pressure;Samples;Min_cycle;Max_cycle;Signal;HPM_P1;HPM_P2
2023/10/15 00:00:12;;;;;;;6.95;2.22;;;;;;;7.83;100.00;101777.53;5026572;28;39001;-75
2023/10/15 00:02:42;;;;;;;6.05;2.00;;;;;;;7.84;100.00;101777.50;5031638;28;20041;-76
2023/10/15 00:05:17;;;;;;;13.35;3.60;;;;;;;7.91;100.00;101772.81;5031270;28;20033;-76
2023/10/15 00:07:43;;;;;;;8.82;2.85;;;;;;;7.95;100.00;101772.66;5024279;28;21071;-76
2023/10/15 00:10:10;;;;;;;8.65;2.20;;;;;;;7.98;100.00;101767.25;5026327;28;20037;-75
2023/10/15 00:12:37;;;;;;;9.40;3.03;;;;;;;8.05;100.00;101770.53;5027592;28;20148;-75
2023/10/15 00:15:13;;;;;;;9.65;3.38;;;;;;;8.07;100.00;101773.97;5026141;28;20060;-75
2023/10/15 00:17:38;;;;;;;9.23;2.53;;;;;;;8.11;100.00;101772.94;5036365;28;20137;-76
2023/10/15 00:20:06;;;;;;;13.70;2.35;;;;;;;8.12;100.00;101781.78;5026308;28;20875;-76
2023/10/15 00:22:31;;;;;;;13.15;2.72;;;;;;;8.06;100.00;101788.19;5031621;28;20026;-75
2023/10/15 00:24:57;;;;;;;8.68;2.53;;;;;;;8.05;100.00;101781.16;5026032;28;22488;-75
2023/10/15 00:27:22;;;;;;;12.95;2.80;;;;;;;8.12;100.00;101784.44;5035330;28;20046;-76
2023/10/15 00:29:48;;;;;;;18.70;3.42;;;;;;;8.15;100.00;101794.94;5030615;28;20048;-76
2023/10/15 00:32:14;;;;;;;11.30;2.42;;;;;;;8.07;100.00;101797.88;5027269;28;20037;-77
2023/10/15 00:34:39;;;;;;;8.13;2.30;;;;;;;8.01;100.00;101787.50;5033924;28;20037;-76
2023/10/15 00:37:05;;;;;;;5.60;2.38;;;;;;;8.05;100.00;101784.66;5035350;28;20045;-77
2023/10/15 00:39:31;;;;;;;9.00;2.20;;;;;;;8.07;100.00;101787.25;5036874;28;20029;-77
2023/10/15 00:41:56;;;;;;;6.90;2.65;;;;;;;8.02;100.00;101798.03;5028701;28;20084;-76
2023/10/15 00:44:23;;;;;;;6.63;2.00;;;;;;;7.95;100.00;101791.25;5027165;28;20050;-76
2023/10/15 00:46:54;;;;;;;9.75;2.45;;;;;;;7.91;100.00;101796.72;5028287;28;36378;-77
2023/10/15 00:49:25;;;;;;;6.82;2.42;;;;;;;8.06;100.00;101793.50;5035385;28;20083;-76
2023/10/15 00:51:52;;;;;;;6.25;2.00;;;;;;;8.06;100.00;101798.81;5033920;28;20029;-75
2023/10/15 00:54:18;;;;;;;6.63;2.45;;;;;;;8.10;100.00;101795.13;5040274;28;20918;-75
2023/10/15 00:56:46;;;;;;;4.18;1.60;;;;;;;8.02;100.00;101786.56;5046245;28;20050;-76
2023/10/15 00:59:18;;;;;;;5.90;1.98;;;;;;;8.11;100.00;101791.53;5030245;28;20041;-77
2023/10/15 01:04:31;;;;;;;6.53;1.92;;;;;;;7.97;100.00;101791.19;5041940;28;20037;-77
2023/10/15 01:07:00;;;;;;;5.50;1.85;;;;;;;7.84;100.00;101781.97;5029180;28;20049;-77
2023/10/15 01:09:29;;;;;;;7.55;1.92;;;;;;;7.88;100.00;101779.13;5031581;28;20088;-76
2023/10/15 01:11:57;;;;;;;5.90;1.95;;;;;;;7.86;100.00;101767.69;5031692;28;20038;-75
2023/10/15 01:14:39;;;;;;;4.78;1.50;;;;;;;7.87;100.00;101766.75;5028958;28;20030;-76
2023/10/15 01:17:05;;;;;;;4.55;1.52;;;;;;;7.83;100.00;101749.22;5037284;28;20034;-77
2023/10/15 01:19:32;;;;;;;9.65;1.55;;;;;;;7.77;100.00;101729.06;5034704;28;20825;-76
2023/10/15 01:22:03;;;;;;;2.25;1.10;;;;;;;7.74;100.00;101709.75;5028812;28;20061;-75
2023/10/15 01:24:41;;;;;;;2.80;1.00;;;;;;;7.69;100.00;101696.63;5026836;28;20029;-75
2023/10/15 01:27:09;;;;;;;3.63;1.30;;;;;;;7.66;100.00;101698.53;5032279;28;20045;-75
2023/10/15 01:29:41;;;;;;;1.50;0.77;;;;;;;7.64;100.00;101711.00;5035061;28;20896;-77
2023/10/15 01:32:10;;;;;;;1.25;0.75;;;;;;;7.67;100.00;101716.19;5040262;28;20089;-75
2023/10/15 01:34:48;;;;;;;2.35;0.93;;;;;;;7.60;100.00;101710.25;5035951;28;20072;-75
2023/10/15 01:39:49;;;;;;;2.88;0.95;;;;;;;7.75;100.00;101703.50;5044179;28;20037;-76
2023/10/15 01:42:54;;;;;;;3.60;1.02;;;;;;;7.74;100.00;101697.34;5034373;28;20033;-75
2023/10/15 01:50:15;;;;;;;1.63;1.10;;;;;;;7.74;100.00;101688.50;5040820;28;20037;-77
2023/10/15 01:52:43;;;;;;;1.73;1.08;;;;;;;7.72;100.00;101683.22;5021258;28;20100;-75
2023/10/15 01:55:09;;;;;;;5.13;1.42;;;;;;;7.83;100.00;101687.25;5046116;28;20116;-77
2023/10/15 01:57:39;;;;;;;6.05;1.45;;;;;;;7.87;100.00;101684.44;5028690;28;20030;-75
2023/10/15 02:01:09;;;;;;;4.43;1.38;;;;;;;7.79;100.00;101705.13;5038790;28;20037;-75
2023/10/15 02:03:02;;;;;;;1.80;1.00;;;;;;;7.67;100.00;101710.88;5014603;28;20045;-76
2023/10/15 02:05:41;;;;;;;3.85;1.10;;;;;;;7.71;100.00;101713.38;5037071;28;20041;-76
2023/10/15 02:08:14;;;;;;;8.23;1.67;;;;;;;7.67;100.00;101717.06;5025027;28;20056;-75
2023/10/15 02:10:47;;;;;;;4.40;1.52;;;;;;;7.73;100.00;101719.50;5033846;28;20036;-77
2023/10/15 02:13:19;;;;;;;2.95;1.27;;;;;;;7.66;100.00;101720.63;5028271;28;20079;-75
2023/10/15 02:15:55;;;;;;;4.95;1.25;;;;;;;7.71;100.00;101717.81;5029108;28;20981;-76
2023/10/15 02:18:21;;;;;;;3.83;1.77;;;;;;;7.77;100.00;101717.56;5035160;28;20117;-75
2023/10/15 02:23:20;;;;;;;7.55;1.58;;;;;;;7.75;100.00;101708.81;5041358;28;20045;-75
2023/10/15 02:25:47;;;;;;;2.70;1.35;;;;;;;7.72;100.00;101711.56;5029710;28;20144;-75
2023/10/15 02:28:32;;;;;;;3.05;1.75;;;;;;;7.65;100.00;101702.97;5031268;28;20053;-76
2023/10/15 02:33:36;;;;;;;6.75;1.83;;;;;;;7.71;100.00;101707.19;5029985;28;20954;-77
2023/10/15 02:36:07;;;;;;;4.88;1.73;;;;;;;7.72;100.00;101700.94;5035393;28;20072;-74
2023/10/15 02:38:34;;;;;;;4.47;1.60;;;;;;;7.72;100.00;101708.91;5034342;28;20029;-76
2023/10/15 02:41:04;;;;;;;4.63;1.80;;;;;;;7.74;100.00;101709.75;5023979;28;20034;-75
2023/10/15 02:43:30;;;;;;;6.22;1.92;;;;;;;7.77;100.00;101712.25;5028612;28;20042;-74
2023/10/15 02:48:41;;;;;;;6.75;1.67;;;;;;;7.87;100.00;101686.22;5032593;28;20221;-77
2023/10/15 02:51:08;;;;;;;8.55;2.17;;;;;;;7.91;100.00;101694.03;5035892;28;20040;-75
2023/10/15 02:53:36;;;;;;;8.77;2.03;;;;;;;7.99;100.00;101701.72;5028801;28;20033;-74
2023/10/15 02:56:10;;;;;;;9.43;2.30;;;;;;;7.86;100.00;101705.75;5033771;28;20034;-77
2023/10/15 02:58:36;;;;;;;4.90;2.47;;;;;;;7.89;100.00;101697.69;5032631;28;20250;-76
2023/10/15 03:01:12;;;;;;;5.68;1.70;;;;;;;8.04;100.00;101691.78;5024988;28;20033;-76
2023/10/15 03:03:38;;;;;;;5.63;2.20;;;;;;;8.02;100.00;101683.84;5021341;28;20124;-75
2023/10/15 03:06:09;;;;;;;6.30;2.22;;;;;;;8.06;100.00;101689.91;5034840;28;20053;-76
2023/10/15 03:08:36;;;;;;;5.43;2.50;;;;;;;8.07;100.00;101690.78;5031502;28;20034;-76
2023/10/15 03:11:14;;;;;;;8.60;2.00;;;;;;;8.10;100.00;101698.63;5041797;28;20033;-75
2023/10/15 03:13:55;;;;;;;5.47;1.80;;;;;;;8.13;100.00;101703.81;5030558;28;20050;-77
2023/10/15 03:16:24;;;;;;;8.68;2.45;;;;;;;8.12;100.00;101694.09;5064856;28;20037;-75
2023/10/15 03:18:52;;;;;;;4.97;1.73;;;;;;;8.19;100.00;101695.63;5034573;28;20112;-76
2023/10/15 03:21:26;;;;;;;7.72;2.50;;;;;;;8.17;100.00;101702.75;5034308;28;20059;-77
2023/10/15 03:23:55;;;;;;;8.32;2.13;;;;;;;8.15;100.00;101705.50;5026463;28;20097;-76
2023/10/15 03:26:31;;;;;;;8.23;2.72;;;;;;;8.15;100.00;101707.28;5029944;28;20054;-75
2023/10/15 03:29:06;;;;;;;9.13;2.28;;;;;;;8.13;100.00;101706.47;5034459;28;20050;-77
2023/10/15 03:31:32;;;;;;;7.15;1.98;;;;;;;8.04;100.00;101700.59;5030794;28;20034;-75
2023/10/15 03:36:57;;;;;;;4.50;2.00;;;;;;;8.09;100.00;101703.06;5039890;28;20074;-77
2023/10/15 03:42:17;;;;;;;4.53;2.25;;;;;;;8.02;100.00;101704.22;5032526;28;20037;-76
2023/10/15 03:44:44;;;;;;;6.78;1.67;;;;;;;8.03;100.00;101712.16;5034446;28;20044;-76
2023/10/15 03:47:11;;;;;;;6.55;1.88;;;;;;;7.98;100.00;101706.16;5031846;28;20133;-76
2023/10/15 03:49:37;;;;;;;6.28;1.58;;;;;;;7.87;100.00;101720.75;5029257;28;20103;-77
2023/10/15 03:52:07;;;;;;;7.35;2.00;;;;;;;7.93;100.00;101709.88;5033429;28;20061;-75
2023/10/15 03:54:33;;;;;;;8.43;1.85;;;;;;;7.85;100.00;101712.84;5029879;28;20064;-75
2023/10/15 03:57:01;;;;;;;6.88;2.47;;;;;;;7.92;100.00;101698.41;5033255;28;20096;-76
2023/10/15 03:59:27;;;;;;;5.57;1.67;;;;;;;7.91;100.00;101717.91;5034486;28;20175;-76
2023/10/15 04:01:56;;;;;;;8.60;1.65;;;;;;;7.87;100.00;101729.56;5030954;28;20889;-76
2023/10/15 04:04:22;;;;;;;8.73;1.88;;;;;;;7.85;100.00;101726.13;5031989;28;20057;-77
2023/10/15 04:07:10;;;;;;;5.57;1.88;;;;;;;7.98;100.00;101730.06;5032869;28;30151;-76
2023/10/15 04:09:35;;;;;;;3.63;1.83;;;;;;;8.02;100.00;101736.09;5028576;28;20148;-76
2023/10/15 04:12:06;;;;;;;5.10;1.48;;;;;;;8.11;100.00;101742.84;5033908;28;20037;-75
2023/10/15 04:14:32;;;;;;;7.50;2.08;;;;;;;8.13;100.00;101748.97;5034764;28;20041;-76
2023/10/15 04:16:58;;;;;;;3.70;1.48;;;;;;;8.03;100.00;101749.34;5034598;28;20033;-75
2023/10/15 04:19:29;;;;;;;3.83;1.45;;;;;;;8.09;100.00;101764.19;5029711;28;20056;-76
2023/10/15 04:22:15;;;;;;;4.50;1.50;;;;;;;8.06;100.00;101769.59;5032389;28;20046;-75
2023/10/15 04:24:46;;;;;;;3.72;1.67;;;;;;;8.04;100.00;101774.09;5029462;28;20129;-76
2023/10/15 04:27:16;;;;;;;5.00;1.70;;;;;;;7.90;100.00;101782.59;5034796;28;20108;-75
2023/10/15 04:29:49;;;;;;;6.65;1.33;;;;;;;7.57;100.00;101786.47;5029434;28;20558;-75
2023/10/15 04:32:22;;;;;;;4.75;1.30;;;;;;;7.53;100.00;101786.59;5029504;28;20118;-75
2023/10/15 04:34:50;;;;;;;4.10;1.25;;;;;;;7.33;100.00;101791.72;5028838;28;21150;-75
2023/10/15 04:37:16;;;;;;;3.20;1.00;;;;;;;7.34;100.00;101782.84;5030923;28;20041;-77
2023/10/15 04:39:55;;;;;;;5.47;1.55;;;;;;;7.40;100.00;101752.56;5029100;28;20034;-76
2023/10/15 04:42:59;;;;;;;7.70;1.38;;;;;;;7.33;100.00;101725.41;5024374;28;20653;-77
2023/10/15 04:48:26;;;;;;;1.95;0.73;;;;;;;7.32;100.00;101704.22;5029826;28;20172;-75
2023/10/15 04:50:52;;;;;;;1.40;0.90;;;;;;;7.37;100.00;101705.78;5026725;28;20918;-75
2023/10/15 04:55:51;;;;;;;2.42;0.60;;;;;;;7.53;100.00;101711.41;5027805;28;20154;-76
2023/10/15 04:58:17;;;;;;;5.38;1.00;;;;;;;7.50;100.00;101716.81;5026987;28;20037;-76
2023/10/15 05:00:50;;;;;;;3.65;1.08;;;;;;;7.53;100.00;101714.94;5033739;28;20032;-76
2023/10/15 05:03:16;;;;;;;4.25;1.35;;;;;;;7.59;100.00;101716.50;5025444;28;20046;-75
2023/10/15 05:05:42;;;;;;;3.65;1.10;;;;;;;7.58;100.00;101714.75;5030632;28;20025;-74
2023/10/15 05:08:11;;;;;;;1.13;0.93;;;;;;;7.45;100.00;101722.28;5034283;28;20042;-76
2023/10/15 05:10:38;;;;;;;3.75;1.10;;;;;;;7.46;100.00;101724.00;5031837;28;20088;-76
2023/10/15 05:13:04;;;;;;;5.50;1.08;;;;;;;7.37;100.00;101736.75;5038291;28;20041;-76
2023/10/15 05:15:30;;;;;;;4.45;1.40;;;;;;;7.42;100.00;101748.06;5036138;28;20029;-76
2023/10/15 05:17:55;;;;;;;1.20;0.75;;;;;;;7.36;100.00;101738.53;5032441;28;20544;-76
2023/10/15 05:20:21;;;;;;;5.63;1.20;;;;;;;7.30;100.00;101743.19;5030684;28;20056;-76
2023/10/15 05:22:48;;;;;;;2.03;0.90;;;;;;;7.32;100.00;101728.94;5027888;28;20124;-75
2023/10/15 05:25:17;;;;;;;2.33;0.88;;;;;;;7.30;100.00;101733.44;5028563;28;20048;-75
2023/10/15 05:27:49;;;;;;;2.05;0.68;;;;;;;7.29;100.00;101730.88;5035003;28;21101;-76
2023/10/15 05:30:15;;;;;;;;;;;;;;;7.24;100.00;101736.34;5032108;28;20034;-75
2023/10/15 05:32:45;;;;;;;3.17;0.82;;;;;;;7.20;100.00;101746.19;5032573;28;19917;-76
2023/10/15 05:35:12;;;;;;;2.95;0.90;;;;;;;7.18;100.00;101750.69;5035100;28;20065;-76
2023/10/15 05:37:39;;;;;;;2.33;1.00;;;;;;;7.11;100.00;101750.94;5025757;28;20042;-76
2023/10/15 05:40:06;;;;;;;1.25;1.02;;;;;;;7.15;100.00;101749.91;5028373;28;20072;-76
2023/10/15 05:42:32;;;;;;;1.45;1.13;;;;;;;7.17;100.00;101748.91;5032523;28;20955;-76
2023/10/15 05:44:58;;;;;;;2.90;1.30;;;;;;;7.22;100.00;101749.63;5035367;28;20040;-76
2023/10/15 05:47:23;;;;;;;2.30;1.00;;;;;;;7.20;100.00;101740.88;5026032;28;21015;-76
2023/10/15 05:49:49;;;;;;;3.85;1.27;;;;;;;7.20;100.00;101740.88;5032733;28;20036;-76
2023/10/15 05:52:15;;;;;;;2.13;1.00;;;;;;;7.23;100.00;101740.78;5026807;28;20087;-76
2023/10/15 05:54:41;;;;;;;3.20;1.23;;;;;;;7.23;100.00;101742.56;5029202;28;20058;-75
2023/10/15 05:57:07;;;;;;;3.10;1.35;;;;;;;7.31;100.00;101740.47;5059527;28;20068;-77
2023/10/15 05:59:36;;;;;;;2.70;1.27;;;;;;;7.31;100.00;101745.78;5031110;28;20856;-75
2023/10/15 06:02:04;;;;;;;4.22;1.20;;;;;;;7.24;100.00;101745.16;5030866;28;20124;-75
2023/10/15 06:04:30;;;;;;;3.65;1.48;;;;;;;7.18;100.00;101748.03;5032779;28;20057;-76
2023/10/15 06:06:55;;;;;;;1.98;1.30;;;;;;;7.21;100.00;101755.00;5021291;28;20054;-76
2023/10/15 06:09:21;;;;;;;3.15;1.98;;;;;;;7.17;100.00;101754.22;5031402;28;20119;-76
2023/10/15 06:11:46;;;;;;;5.53;2.17;;;;;;;7.12;100.00;101763.25;5027980;28;20049;-75
2023/10/15 06:14:12;;;;;;;6.75;2.17;;;;;;;7.11;100.00;101766.84;5026485;28;20049;-76
2023/10/15 06:16:37;;;;;;;5.28;2.80;;;;;;;7.01;100.00;101766.28;5032634;28;20040;-76
2023/10/15 06:19:03;;;;;;;3.08;1.83;;;;;;;7.00;100.00;101775.16;5033459;28;20038;-76
2023/10/15 06:21:29;;;;;;;4.57;1.63;;;;;;;7.05;100.00;101775.88;5026623;28;20038;-75
2023/10/15 06:23:54;;;;;;;4.68;1.90;;;;;;;7.03;100.00;101767.13;5039372;28;20043;-75
2023/10/15 06:26:20;;;;;;;6.25;1.65;;;;;;;6.96;100.00;101766.44;5024972;28;20081;-75
2023/10/15 06:28:45;;;;;;;3.60;1.23;;;;;;;7.13;100.00;101759.69;5034887;28;20041;-75
2023/10/15 06:31:10;;;;;;;6.38;1.38;;;;;;;7.03;100.00;101760.91;5033768;28;20041;-76
2023/10/15 06:33:40;;;;;;;5.13;1.20;;;;;;;7.07;100.00;101781.13;5033349;28;23784;-76
2023/10/15 06:36:07;;;;;;;3.63;1.48;;;;;;;7.19;100.00;101784.22;5027743;28;20037;-76
2023/10/15 06:38:33;;;;;;;4.68;1.80;;;;;;;7.26;100.00;101793.69;5027168;28;20082;-75
2023/10/15 06:41:00;;;;;;;6.88;1.80;;;;;;;7.15;100.00;101787.91;5030581;28;20045;-76
2023/10/15 06:43:26;;;;;;;5.72;1.90;;;;;;;7.17;100.00;101793.16;5035082;28;20030;-76
2023/10/15 06:45:54;;;;;;;4.38;1.85;;;;;;;7.12;100.00;101795.94;5023230;28;20061;-76
2023/10/15 06:48:22;;;;;;;6.22;2.42;;;;;;;7.10;100.00;101803.09;5026844;28;20037;-76
2023/10/15 06:50:48;;;;;;;6.70;2.38;;;;;;;7.09;100.00;101809.34;5029155;28;20039;-75
2023/10/15 06:53:14;;;;;;;3.55;1.85;;;;;;;7.13;100.00;101820.69;5029365;28;20036;-76
2023/10/15 06:55:39;;;;;;;4.75;2.38;;;;;;;7.26;100.00;101835.28;5028037;28;20076;-75
2023/10/15 06:58:05;;;;;;;6.22;2.45;;;;;;;7.45;100.00;101833.75;5032967;28;20118;-75
2023/10/15 07:00:36;;;;;;;5.82;2.83;;;;;;;7.84;100.00;101833.28;5032242;28;20127;-76
2023/10/15 07:03:02;;;;;;;7.13;2.58;;;;;;;8.33;100.00;101823.44;5034056;28;20033;-75
2023/10/15 07:05:28;;;;;;;4.85;2.38;;;;;;;8.74;100.00;101827.22;5033638;28;20033;-76
2023/10/15 07:07:56;;;;;;;5.10;2.47;;;;;;;9.06;100.00;101827.69;5027493;28;20172;-75
2023/10/15 07:10:22;;;;;;;4.97;1.80;;;;;;;9.30;100.00;101832.00;5023880;28;20806;-76
2023/10/15 07:12:50;;;;;;;5.88;2.25;;;;;;;9.58;100.00;101831.66;5028999;28;20041;-77
2023/10/15 07:15:17;;;;;;;4.63;1.60;;;;;;;9.41;100.00;101834.19;5031849;28;20112;-76
2023/10/15 07:17:44;;;;;;;5.40;1.95;;;;;;;9.10;100.00;101839.09;5033010;28;20040;-77
2023/10/15 07:20:21;;;;;;;9.07;2.20;;;;;;;8.84;100.00;101854.31;5029758;28;20105;-75
2023/10/15 07:22:51;;;;;;;6.22;1.67;;;;;;;8.48;100.00;101860.13;5025520;28;20037;-75
2023/10/15 07:25:20;;;;;;;2.55;1.70;;;;;;;8.28;100.00;101865.28;5030321;28;20617;-76
2023/10/15 07:27:48;;;;;;;2.72;1.40;;;;;;;8.19;100.00;101865.66;5031350;28;20052;-76
2023/10/15 07:30:21;;;;;;;8.20;1.85;;;;;;;8.21;100.00;101872.63;5028343;28;20080;-75
2023/10/15 07:32:48;;;;;;;5.10;1.48;;;;;;;8.21;100.00;101877.06;5032037;28;20037;-77
2023/10/15 07:35:14;;;;;;;3.83;1.63;;;;;;;8.41;100.00;101884.34;5032825;28;20041;-76
2023/10/15 07:37:44;;;;;;;3.28;1.40;;;;;;;8.65;100.00;101878.09;5032896;28;20030;-76
2023/10/15 07:40:18;;;;;;;5.70;1.75;;;;;;;8.92;100.00;101884.09;5026187;28;20064;-77
2023/10/15 07:42:51;;;;;;;6.13;2.00;;;;;;;9.07;100.00;101872.00;5027555;28;20042;-77
2023/10/15 07:45:18;;;;;;;4.15;1.92;;;;;;;8.90;100.00;101880.66;5024435;28;20038;-76
2023/10/15 07:47:44;;;;;;;6.22;1.88;;;;;;;8.86;100.00;101894.13;5031851;28;20148;-77
2023/10/15 07:50:13;;;;;;;3.65;2.00;;;;;;;8.90;100.00;101896.63;5025041;28;21679;-76
2023/10/15 07:52:39;;;;;;;7.40;2.25;;;;;;;8.76;100.00;101909.56;5032441;28;20903;-75
2023/10/15 07:55:06;;;;;;;5.15;1.80;;;;;;;8.63;100.00;101906.50;5025417;28;20034;-76
2023/10/15 07:57:31;;;;;;;6.65;1.70;;;;;;;8.70;100.00;101907.16;5028284;28;20112;-76
2023/10/15 08:00:00;;;;;;;5.95;2.00;;;;;;;8.75;100.00;101910.50;5027251;28;20041;-76
2023/10/15 08:02:26;;;;;;;6.20;1.90;;;;;;;8.75;100.00;101915.84;5069956;28;20595;-75
2023/10/15 08:04:55;;;;;;;5.90;2.20;;;;;;;8.70;100.00;101909.81;5029666;28;20924;-76
2023/10/15 08:07:22;;;;;;;5.85;2.10;;;;;;;8.60;100.00;101909.31;5032657;28;20875;-75
2023/10/15 08:09:47;;;;;;;5.28;1.83;;;;;;;8.65;100.00;101917.97;5032602;28;20099;-76
2023/10/15 08:12:13;;;;;;;6.32;1.98;;;;;;;8.87;100.00;101925.97;5035055;28;20041;-76
2023/10/15 08:14:38;;;;;;;5.80;2.10;;;;;;;8.91;100.00;101927.59;5032664;28;20037;-75
2023/10/15 08:17:04;;;;;;;5.25;1.83;;;;;;;9.04;100.00;101914.69;5029575;28;20049;-76
2023/10/15 08:19:29;;;;;;;4.15;2.05;;;;;;;9.07;100.00;101915.41;5007048;28;27818;-76
2023/10/15 08:21:56;;;;;;;7.18;2.10;;;;;;;9.24;100.00;101922.75;5033360;28;20033;-75
2023/10/15 08:24:21;;;;;;;3.67;2.05;;;;;;;9.38;100.00;101919.50;5027416;28;20025;-76
2023/10/15 08:26:47;;;;;;;13.02;2.30;;;;;;;9.48;100.00;101930.63;5026145;28;20989;-77
2023/10/15 08:29:13;;;;;;;7.32;2.22;;;;;;;9.44;100.00;101934.34;5030009;28;20037;-75
2023/10/15 08:31:38;;;;;;;6.90;2.10;;;;;;;9.52;100.00;101942.91;5034287;28;20103;-75
2023/10/15 08:34:04;;;;;;;7.05;2.22;;;;;;;9.44;100.00;101947.66;5036750;28;20155;-77
2023/10/15 08:36:29;;;;;;;5.25;2.08;;;;;;;9.47;100.00;101953.72;5023253;28;20061;-75
2023/10/15 08:38:55;;;;;;;5.10;1.70;;;;;;;9.33;100.00;101950.75;5034588;28;34194;-76
2023/10/15 08:41:25;;;;;;;9.80;1.80;;;;;;;9.05;100.00;101956.34;5025973;28;20038;-76
2023/10/15 08:43:51;;;;;;;4.57;1.70;;;;;;;9.18;100.00;101962.03;5034464;28;20038;-76
2023/10/15 08:46:23;;;;;;;6.03;1.70;;;;;;;9.13;100.00;101964.88;5032772;28;20195;-75
2023/10/15 08:48:49;;;;;;;7.57;1.77;;;;;;;9.08;100.00;101977.47;5032590;28;20087;-76
2023/10/15 08:51:21;;;;;;;7.30;1.63;;;;;;;8.96;100.00;101975.31;5032922;28;20669;-75
2023/10/15 08:53:49;;;;;;;3.42;1.40;;;;;;;9.02;100.00;101975.06;5037050;28;20052;-76
2023/10/15 08:56:20;;;;;;;3.65;0.98;;;;;;;9.09;100.00;101973.91;5030643;28;20060;-75
2023/10/15 08:58:50;;;;;;;3.63;0.98;;;;;;;9.14;100.00;101955.13;5031068;28;20628;-75
2023/10/15 09:01:15;;;;;;;2.38;1.30;;;;;;;9.27;100.00;101959.00;5034129;28;20037;-75
2023/10/15 09:03:41;;;;;;;4.15;1.30;;;;;;;9.22;100.00;101967.16;5034009;28;20038;-76
2023/10/15 09:06:07;;;;;;;4.15;1.40;;;;;;;9.43;100.00;101983.22;5034278;28;20054;-76
2023/10/15 09:08:35;;;;;;;4.18;1.00;;;;;;;9.51;100.00;101971.31;5035128;28;20025;-76
2023/10/15 09:11:01;;;;;;;2.10;0.93;;;;;;;9.48;100.00;101976.75;5035630;28;20065;-77
2023/10/15 09:13:26;;;;;;;3.45;1.20;;;;;;;9.52;100.00;101978.38;5033972;28;33184;-75
2023/10/15 09:15:52;;;;;;;6.05;1.35;;;;;;;9.65;100.00;101978.75;5033826;28;20140;-76
2023/10/15 09:18:18;;;;;;;4.65;1.50;;;;;;;9.67;100.00;101978.69;5034764;28;20033;-77
2023/10/15 09:20:51;;;;;;;4.38;1.33;;;;;;;9.63;100.00;101983.25;5035426;28;20117;-76
2023/10/15 09:23:21;;;;;;;3.70;1.75;;;;;;;9.57;100.00;101994.16;5035787;28;20040;-77
2023/10/15 09:25:50;;;;;;;2.92;1.00;;;;;;;9.50;100.00;101993.56;5035488;28;20136;-76
2023/10/15 09:28:16;;;;;;;2.92;1.23;;;;;;;9.51;100.00;102005.06;5035741;28;20041;-76
2023/10/15 09:30:46;;;;;;;6.30;1.00;;;;;;;9.50;100.00;102004.22;5032692;28;20041;-75
2023/10/15 09:33:16;;;;;;;4.00;1.10;;;;;;;9.76;100.00;102007.59;5035399;28;21107;-77
2023/10/15 09:35:42;;;;;;;4.70;1.40;;;;;;;10.32;100.00;102010.56;5031419;28;20038;-76
2023/10/15 09:38:13;;;;;;;4.32;1.38;;;;;;;10.86;100.00;102005.50;5028924;28;20037;-76
2023/10/15 09:40:43;;;;;;;3.30;1.10;;;;;;;10.62;100.00;102016.34;5026462;28;20037;-77
2023/10/15 09:43:10;;;;;;;3.90;1.05;;;;;;;10.49;100.00;102023.19;5029983;28;20137;-77
2023/10/15 09:45:36;;;;;;;2.92;0.88;;;;;;;10.53;100.00;102026.53;5036201;28;20040;-77
2023/10/15 09:48:02;;;;;;;4.50;1.38;;;;;;;10.73;100.00;102029.19;5038182;28;20045;-76
2023/10/15 09:50:31;;;;;;;4.43;1.45;;;;;;;10.60;100.00;102031.56;5033394;28;20068;-77
2023/10/15 09:53:01;;;;;;;4.25;1.00;;;;;;;10.77;100.00;102028.13;5031899;28;20044;-76
2023/10/15 09:55:28;;;;;;;2.88;0.93;;;;;;;10.65;100.00;102018.03;5029117;28;20037;-76
2023/10/15 09:57:55;;;;;;;2.83;1.33;;;;;;;10.47;100.00;102019.69;5031184;28;20049;-77
2023/10/15 10:03:37;;;;;;;2.92;0.80;;;;;;;10.99;100.00;102021.81;5024093;28;20124;-77
2023/10/15 10:06:40;;;;;;;4.32;1.33;;;;;;;10.97;100.00;102032.56;5022303;28;20857;-76
2023/10/15 10:09:29;;;;;;;1.45;0.73;;;;;;;10.92;100.00;102037.25;5029717;28;20041;-76
2023/10/15 10:12:07;;;;;;;2.40;1.00;;;;;;;10.69;100.00;102035.59;5028685;28;20025;-77
2023/10/15 10:15:00;;;;;;;4.28;1.30;;;;;;;10.68;100.00;102049.88;5033431;28;20092;-76
2023/10/15 10:17:28;;;;;;;3.50;1.10;;;;;;;10.55;100.00;102046.03;5034812;28;20037;-76
2023/10/15 10:19:54;;;;;;;5.18;1.50;;;;;;;10.48;100.00;102044.56;5025394;28;20029;-76
2023/10/15 10:22:23;;;;;;;5.03;1.27;;;;;;;10.60;100.00;102049.38;5029789;28;20979;-76
2023/10/15 10:24:48;;;;;;;6.35;1.08;;;;;;;10.57;100.00;102050.34;5027682;28;20034;-77
2023/10/15 10:27:18;;;;;;;3.15;0.90;;;;;;;10.60;100.00;102047.56;5029068;28;20045;-75
2023/10/15 10:29:49;;;;;;;2.05;0.90;;;;;;;10.51;100.00;102044.44;5027363;28;20037;-76
2023/10/15 10:32:15;;;;;;;2.85;0.90;;;;;;;10.67;100.00;102049.94;5048907;28;20800;-76
2023/10/15 10:34:41;;;;;;;5.55;1.42;;;;;;;10.63;100.00;102052.75;5030138;28;20037;-76
2023/10/15 10:37:20;;;;;;;6.50;1.10;;;;;;;10.75;100.00;102053.16;5020601;28;20108;-75
2023/10/15 10:39:48;;;;;;;3.70;1.05;;;;;;;10.77;100.00;102052.13;5032356;28;20121;-75
2023/10/15 10:42:26;;;;;;;2.72;1.15;;;;;;;11.04;100.00;102051.81;5030085;28;20084;-76
2023/10/15 10:44:56;;;;;;;2.50;1.08;;;;;;;11.20;100.00;102062.69;5025901;28;20096;-77
2023/10/15 10:47:29;;;;;;;3.95;1.10;;;;;;;11.58;100.00;102059.03;5032873;28;20037;-76
2023/10/15 10:50:00;;;;;;;6.78;1.35;;;;;;;11.54;100.00;102067.28;5029157;28;20037;-76
2023/10/15 10:52:35;;;;;;;8.43;1.80;;;;;;;11.21;100.00;102061.75;5064033;28;20110;-76
2023/10/15 10:55:30;;;;;;;7.47;1.40;;;;;;;11.06;100.00;102065.97;5017671;28;20037;-76
2023/10/15 10:57:56;;;;;;;8.27;1.52;;;;;;;11.07;100.00;102062.38;5032907;28;21235;-76
2023/10/15 11:00:21;;;;;;;5.30;1.23;;;;;;;11.36;100.00;102058.34;5030290;28;20029;-76
2023/10/15 11:02:48;;;;;;;5.30;1.50;;;;;;;11.38;100.00;102048.44;5032372;28;20108;-76
2023/10/15 11:05:14;;;;;;;5.65;1.40;;;;;;;11.18;100.00;102041.38;5028287;28;20029;-77
2023/10/15 11:07:40;;;;;;;5.18;1.25;;;;;;;10.96;100.00;102040.66;5027819;28;20064;-77
2023/10/15 11:10:07;;;;;;;5.68;1.42;;;;;;;10.97;100.00;102053.03;5030630;28;20040;-75
2023/10/15 11:12:32;;;;;;;6.75;1.88;;;;;;;10.98;100.00;102057.44;5032623;28;20064;-76
2023/10/15 11:14:58;;;;;;;4.78;1.77;;;;;;;11.02;100.00;102048.38;5028858;28;20049;-77
2023/10/15 11:17:24;;;;;;;4.43;1.63;;;;;;;10.89;100.00;102046.28;5030196;28;20033;-77
2023/10/15 11:19:50;;;;;;;7.38;1.60;;;;;;;11.09;100.00;102045.34;5024593;28;20038;-76
2023/10/15 11:22:15;;;;;;;7.00;1.77;;;;;;;11.29;100.00;102048.88;5027299;28;20041;-76
2023/10/15 11:24:43;;;;;;;8.50;1.52;;;;;;;11.07;100.00;102059.69;5030798;28;26882;-76
2023/10/15 11:27:12;;;;;;;3.17;1.10;;;;;;;11.09;100.00;102064.03;5031766;28;20041;-75
2023/10/15 11:29:38;;;;;;;7.13;1.75;;;;;;;11.56;100.00;102068.09;5037405;28;20041;-76
2023/10/15 11:32:06;;;;;;;7.85;1.30;;;;;;;11.41;100.00;102072.34;5030927;28;20080;-76
2023/10/15 11:34:35;;;;;;;4.50;1.35;;;;;;;11.45;100.00;102071.28;5023735;28;20890;-76
2023/10/15 11:37:01;;;;;;;3.92;1.48;;;;;;;11.36;100.00;102075.25;5026364;28;20119;-75
2023/10/15 11:39:37;;;;;;;6.45;1.48;;;;;;;11.28;100.00;102073.84;5028671;28;20041;-77
2023/10/15 11:42:04;;;;;;;5.43;1.63;;;;;;;11.25;100.00;102072.22;5029569;28;20034;-76
2023/10/15 11:44:33;;;;;;;3.38;1.25;;;;;;;11.29;100.00;102067.56;5032701;28;20033;-75
2023/10/15 11:47:08;;;;;;;6.85;1.30;;;;;;;11.30;100.00;102062.19;5030412;28;20045;-74
2023/10/15 11:49:37;;;;;;;4.10;1.10;;;;;;;11.45;100.00;102059.72;5028552;28;20048;-76
2023/10/15 11:52:11;;;;;;;8.55;1.25;;;;;;;11.14;100.00;102062.03;5039245;28;20622;-76
2023/10/15 11:54:43;;;;;;;5.15;1.85;;;;;;;11.12;100.00;102063.03;5031180;28;20038;-76
2023/10/15 11:57:16;;;;;;;8.23;1.60;;;;;;;11.03;100.00;102071.44;5025693;28;20033;-78
2023/10/15 11:59:42;;;;;;;7.07;1.63;;;;;;;11.07;100.00;102057.88;5031649;28;20564;-76
2023/10/15 12:02:11;;;;;;;4.45;1.27;;;;;;;11.37;100.00;102063.59;5025133;28;20041;-77
2023/10/15 12:04:38;;;;;;;5.93;1.08;;;;;;;11.60;100.00;102057.19;5025130;28;21227;-76